ESGG/GOT METAR and TAF weather

Enter ICAO airport designator
Station Type Date Time Source
ESGG METAR 2018/01/19 22:50 UTC NOAA

ESGG 192250Z 12010KT 9999 OVC002 M03/M04 Q1003 R21/19//95


Station Type Date Time Source
ESGG Decoded METAR 2018/01/19 22:50 UTC NOAA

Goteborg / Landvetter, Sweden (ESGG) 57-40N 012-18E
Jan 19, 2018 - 05:50 PM EST / 2018.01.19 2250 UTC
Wind: from the ESE (120 degrees) at 12 MPH (10 KT):0
Visibility: greater than 7 mile(s):0
Sky conditions: overcast
Temperature: 26 F (-3 C)
Windchill: 15 F (-9 C):1
Dew Point: 24 F (-4 C)
Relative Humidity: 92%
Pressure (altimeter): 29.62 in. Hg (1003 hPa)
ob: ESGG 192250Z 12010KT 9999 OVC002 M03/M04 Q1003 R21/19//95
cycle: 23

Station Type Date Time Source
ESGG TAF 2018/01/19 21:25 UTC NOAA

TAF
AMD ESGG 192119Z 1921/2018 14008KT 9999 SCT010 BKN025
TEMPO 1921/2006 2000 BR OVC003
TEMPO 2006/2018 2500 -SN VV006


Example: see airport list